sensor_id;sensor_type;location;lat;lon;timestamp;P1;durP1;ratioP1;P2;durP2;ratioP2
40339;SDS011;26044;50.864;20.658;2023-03-30T00:00:57;46.17;;;17.05;;
40339;SDS011;26044;50.864;20.658;2023-03-30T00:03:25;49.70;;;18.20;;
40339;SDS011;26044;50.864;20.658;2023-03-30T00:05:54;45.97;;;18.08;;
40339;SDS011;26044;50.864;20.658;2023-03-30T00:08:24;46.45;;;16.63;;
40339;SDS011;26044;50.864;20.658;2023-03-30T00:11:00;39.30;;;17.00;;
40339;SDS011;26044;50.864;20.658;2023-03-30T00:13:40;37.30;;;15.57;;
40339;SDS011;26044;50.864;20.658;2023-03-30T00:16:20;44.17;;;16.77;;
40339;SDS011;26044;50.864;20.658;2023-03-30T00:18:50;44.42;;;16.65;;
40339;SDS011;26044;50.864;20.658;2023-03-30T00:21:19;41.35;;;16.00;;
40339;SDS011;26044;50.864;20.658;2023-03-30T00:23:48;39.78;;;15.77;;
40339;SDS011;26044;50.864;20.658;2023-03-30T00:26:22;44.40;;;16.02;;
40339;SDS011;26044;50.864;20.658;2023-03-30T00:28:49;39.25;;;15.30;;
40339;SDS011;26044;50.864;20.658;2023-03-30T00:31:20;42.30;;;17.27;;
40339;SDS011;26044;50.864;20.658;2023-03-30T00:33:53;38.42;;;16.27;;
40339;SDS011;26044;50.864;20.658;2023-03-30T00:36:21;40.53;;;14.88;;
40339;SDS011;26044;50.864;20.658;2023-03-30T00:38:55;43.95;;;16.85;;
40339;SDS011;26044;50.864;20.658;2023-03-30T00:41:25;44.20;;;16.10;;
40339;SDS011;26044;50.864;20.658;2023-03-30T00:47:02;39.95;;;16.13;;
40339;SDS011;26044;50.864;20.658;2023-03-30T00:49:32;40.55;;;16.25;;
40339;SDS011;26044;50.864;20.658;2023-03-30T00:52:01;39.83;;;14.82;;
40339;SDS011;26044;50.864;20.658;2023-03-30T00:54:28;45.22;;;17.08;;
40339;SDS011;26044;50.864;20.658;2023-03-30T00:56:55;44.60;;;15.73;;
40339;SDS011;26044;50.864;20.658;2023-03-30T00:59:22;41.60;;;16.65;;
40339;SDS011;26044;50.864;20.658;2023-03-30T01:01:50;39.97;;;16.25;;
40339;SDS011;26044;50.864;20.658;2023-03-30T01:04:18;41.33;;;15.85;;
40339;SDS011;26044;50.864;20.658;2023-03-30T01:06:45;41.10;;;17.02;;
40339;SDS011;26044;50.864;20.658;2023-03-30T01:09:14;41.05;;;15.73;;
40339;SDS011;26044;50.864;20.658;2023-03-30T01:11:41;38.33;;;15.57;;
40339;SDS011;26044;50.864;20.658;2023-03-30T01:14:10;37.70;;;15.70;;
40339;SDS011;26044;50.864;20.658;2023-03-30T01:25:05;38.00;;;13.68;;
40339;SDS011;26044;50.864;20.658;2023-03-30T01:39:05;36.08;;;15.00;;
40339;SDS011;26044;50.864;20.658;2023-03-30T01:41:48;45.88;;;17.60;;
40339;SDS011;26044;50.864;20.658;2023-03-30T01:44:52;41.33;;;17.17;;
40339;SDS011;26044;50.864;20.658;2023-03-30T01:47:34;38.97;;;15.15;;
40339;SDS011;26044;50.864;20.658;2023-03-30T01:50:21;37.53;;;15.30;;
40339;SDS011;26044;50.864;20.658;2023-03-30T01:52:59;40.00;;;14.88;;
40339;SDS011;26044;50.864;20.658;2023-03-30T01:55:44;38.55;;;15.20;;
40339;SDS011;26044;50.864;20.658;2023-03-30T01:58:20;35.38;;;14.98;;
40339;SDS011;26044;50.864;20.658;2023-03-30T02:00:56;36.47;;;14.07;;
40339;SDS011;26044;50.864;20.658;2023-03-30T02:03:33;42.05;;;14.65;;
40339;SDS011;26044;50.864;20.658;2023-03-30T02:06:07;37.60;;;14.73;;
40339;SDS011;26044;50.864;20.658;2023-03-30T02:08:50;37.72;;;13.55;;
40339;SDS011;26044;50.864;20.658;2023-03-30T02:11:20;36.25;;;14.45;;
40339;SDS011;26044;50.864;20.658;2023-03-30T02:13:49;33.85;;;13.35;;
40339;SDS011;26044;50.864;20.658;2023-03-30T02:16:20;34.22;;;13.75;;
40339;SDS011;26044;50.864;20.658;2023-03-30T02:18:53;34.15;;;13.18;;
40339;SDS011;26044;50.864;20.658;2023-03-30T02:21:20;40.25;;;13.50;;
40339;SDS011;26044;50.864;20.658;2023-03-30T02:23:50;36.80;;;13.05;;
40339;SDS011;26044;50.864;20.658;2023-03-30T02:26:20;36.70;;;13.20;;
40339;SDS011;26044;50.864;20.658;2023-03-30T02:28:48;33.67;;;12.73;;
40339;SDS011;26044;50.864;20.658;2023-03-30T02:31:16;33.88;;;12.63;;
40339;SDS011;26044;50.864;20.658;2023-03-30T02:37:13;31.98;;;13.95;;
40339;SDS011;26044;50.864;20.658;2023-03-30T02:39:56;33.90;;;13.43;;
40339;SDS011;26044;50.864;20.658;2023-03-30T02:42:31;35.10;;;12.23;;
40339;SDS011;26044;50.864;20.658;2023-03-30T02:47:45;32.55;;;12.65;;
40339;SDS011;26044;50.864;20.658;2023-03-30T02:50:21;33.10;;;12.32;;
40339;SDS011;26044;50.864;20.658;2023-03-30T02:53:04;37.85;;;12.88;;
40339;SDS011;26044;50.864;20.658;2023-03-30T02:55:37;28.40;;;11.35;;
40339;SDS011;26044;50.864;20.658;2023-03-30T02:58:13;34.80;;;12.27;;
40339;SDS011;26044;50.864;20.658;2023-03-30T03:01:01;31.38;;;12.07;;
40339;SDS011;26044;50.864;20.658;2023-03-30T03:03:43;32.13;;;11.45;;
40339;SDS011;26044;50.864;20.658;2023-03-30T03:06:13;29.27;;;11.70;;
40339;SDS011;26044;50.864;20.658;2023-03-30T03:08:42;32.97;;;11.68;;
40339;SDS011;26044;50.864;20.658;2023-03-30T03:11:13;29.20;;;11.57;;
40339;SDS011;26044;50.864;20.658;2023-03-30T03:13:41;28.02;;;11.90;;
40339;SDS011;26044;50.864;20.658;2023-03-30T03:16:08;31.23;;;13.27;;
40339;SDS011;26044;50.864;20.658;2023-03-30T03:18:37;34.03;;;11.15;;
40339;SDS011;26044;50.864;20.658;2023-03-30T03:21:07;29.83;;;12.05;;
40339;SDS011;26044;50.864;20.658;2023-03-30T03:23:35;28.35;;;11.65;;
40339;SDS011;26044;50.864;20.658;2023-03-30T03:26:03;33.38;;;12.18;;
40339;SDS011;26044;50.864;20.658;2023-03-30T03:28:30;33.10;;;11.27;;
40339;SDS011;26044;50.864;20.658;2023-03-30T03:30:57;31.08;;;11.73;;
40339;SDS011;26044;50.864;20.658;2023-03-30T03:33:25;29.15;;;11.18;;
40339;SDS011;26044;50.864;20.658;2023-03-30T03:35:53;26.02;;;9.77;;
40339;SDS011;26044;50.864;20.658;2023-03-30T03:38:27;31.35;;;11.25;;
40339;SDS011;26044;50.864;20.658;2023-03-30T03:43:23;28.60;;;11.05;;
40339;SDS011;26044;50.864;20.658;2023-03-30T03:45:51;27.80;;;10.27;;
40339;SDS011;26044;50.864;20.658;2023-03-30T03:48:19;29.88;;;10.77;;
40339;SDS011;26044;50.864;20.658;2023-03-30T03:50:51;30.38;;;11.10;;
40339;SDS011;26044;50.864;20.658;2023-03-30T03:53:23;27.17;;;10.48;;
40339;SDS011;26044;50.864;20.658;2023-03-30T03:55:54;27.60;;;9.90;;
40339;SDS011;26044;50.864;20.658;2023-03-30T03:58:24;26.23;;;9.98;;
40339;SDS011;26044;50.864;20.658;2023-03-30T04:00:56;25.95;;;10.05;;
40339;SDS011;26044;50.864;20.658;2023-03-30T04:03:23;26.42;;;9.45;;
40339;SDS011;26044;50.864;20.658;2023-03-30T04:05:51;23.80;;;9.75;;
40339;SDS011;26044;50.864;20.658;2023-03-30T04:08:17;26.85;;;9.75;;
40339;SDS011;26044;50.864;20.658;2023-03-30T04:10:44;25.92;;;9.65;;
40339;SDS011;26044;50.864;20.658;2023-03-30T04:13:11;24.10;;;9.50;;
40339;SDS011;26044;50.864;20.658;2023-03-30T04:15:38;27.20;;;9.65;;
40339;SDS011;26044;50.864;20.658;2023-03-30T04:18:05;26.38;;;9.85;;
40339;SDS011;26044;50.864;20.658;2023-03-30T04:20:33;27.77;;;9.63;;
40339;SDS011;26044;50.864;20.658;2023-03-30T04:23:00;27.20;;;9.98;;
40339;SDS011;26044;50.864;20.658;2023-03-30T04:25:27;24.80;;;9.63;;
40339;SDS011;26044;50.864;20.658;2023-03-30T04:27:54;30.48;;;10.63;;
40339;SDS011;26044;50.864;20.658;2023-03-30T04:30:22;28.23;;;9.77;;
40339;SDS011;26044;50.864;20.658;2023-03-30T04:32:50;28.90;;;9.63;;
40339;SDS011;26044;50.864;20.658;2023-03-30T04:35:31;33.38;;;11.05;;
40339;SDS011;26044;50.864;20.658;2023-03-30T04:37:59;30.02;;;9.80;;
40339;SDS011;26044;50.864;20.658;2023-03-30T04:40:28;26.00;;;10.00;;
40339;SDS011;26044;50.864;20.658;2023-03-30T04:42:55;34.50;;;11.13;;
40339;SDS011;26044;50.864;20.658;2023-03-30T04:45:27;30.08;;;10.77;;
40339;SDS011;26044;50.864;20.658;2023-03-30T04:47:55;32.22;;;10.70;;
40339;SDS011;26044;50.864;20.658;2023-03-30T04:50:25;28.25;;;9.85;;
40339;SDS011;26044;50.864;20.658;2023-03-30T04:52:51;32.85;;;11.60;;
40339;SDS011;26044;50.864;20.658;2023-03-30T04:55:18;39.47;;;14.25;;
40339;SDS011;26044;50.864;20.658;2023-03-30T04:57:45;39.67;;;16.85;;
40339;SDS011;26044;50.864;20.658;2023-03-30T05:00:13;48.03;;;19.48;;
40339;SDS011;26044;50.864;20.658;2023-03-30T05:02:41;44.80;;;18.15;;
40339;SDS011;26044;50.864;20.658;2023-03-30T05:05:08;32.63;;;12.20;;
40339;SDS011;26044;50.864;20.658;2023-03-30T05:07:35;34.17;;;12.10;;
40339;SDS011;26044;50.864;20.658;2023-03-30T05:10:02;32.13;;;12.23;;
40339;SDS011;26044;50.864;20.658;2023-03-30T05:12:29;34.08;;;13.05;;
40339;SDS011;26044;50.864;20.658;2023-03-30T05:14:56;30.83;;;10.98;;
40339;SDS011;26044;50.864;20.658;2023-03-30T05:17:23;31.88;;;12.25;;
40339;SDS011;26044;50.864;20.658;2023-03-30T05:19:50;30.38;;;10.55;;
40339;SDS011;26044;50.864;20.658;2023-03-30T05:22:16;26.75;;;10.15;;
40339;SDS011;26044;50.864;20.658;2023-03-30T05:24:43;25.48;;;9.60;;
40339;SDS011;26044;50.864;20.658;2023-03-30T05:27:10;29.50;;;10.68;;
40339;SDS011;26044;50.864;20.658;2023-03-30T05:29:38;24.98;;;8.25;;
40339;SDS011;26044;50.864;20.658;2023-03-30T05:32:05;27.17;;;10.30;;
40339;SDS011;26044;50.864;20.658;2023-03-30T05:34:33;30.55;;;9.45;;
40339;SDS011;26044;50.864;20.658;2023-03-30T05:37:00;27.45;;;9.65;;
40339;SDS011;26044;50.864;20.658;2023-03-30T05:39:27;26.77;;;10.60;;
40339;SDS011;26044;50.864;20.658;2023-03-30T05:41:53;31.30;;;12.20;;
40339;SDS011;26044;50.864;20.658;2023-03-30T05:44:20;35.70;;;13.23;;
40339;SDS011;26044;50.864;20.658;2023-03-30T05:46:47;26.42;;;9.75;;
40339;SDS011;26044;50.864;20.658;2023-03-30T05:49:14;27.23;;;9.88;;
40339;SDS011;26044;50.864;20.658;2023-03-30T05:51:41;29.35;;;9.98;;
40339;SDS011;26044;50.864;20.658;2023-03-30T05:54:11;25.83;;;9.70;;
40339;SDS011;26044;50.864;20.658;2023-03-30T05:56:38;25.05;;;8.75;;
40339;SDS011;26044;50.864;20.658;2023-03-30T05:59:07;27.38;;;9.50;;
40339;SDS011;26044;50.864;20.658;2023-03-30T06:01:35;27.15;;;9.02;;
40339;SDS011;26044;50.864;20.658;2023-03-30T06:04:02;27.77;;;9.48;;
40339;SDS011;26044;50.864;20.658;2023-03-30T06:06:29;26.67;;;9.60;;
40339;SDS011;26044;50.864;20.658;2023-03-30T06:08:56;24.27;;;9.55;;
40339;SDS011;26044;50.864;20.658;2023-03-30T06:11:23;28.98;;;8.77;;
40339;SDS011;26044;50.864;20.658;2023-03-30T06:13:50;29.02;;;9.82;;
40339;SDS011;26044;50.864;20.658;2023-03-30T06:16:17;26.23;;;8.68;;
40339;SDS011;26044;50.864;20.658;2023-03-30T06:18:44;26.40;;;8.13;;
40339;SDS011;26044;50.864;20.658;2023-03-30T06:21:11;26.58;;;8.93;;
40339;SDS011;26044;50.864;20.658;2023-03-30T06:23:37;25.70;;;8.77;;
40339;SDS011;26044;50.864;20.658;2023-03-30T06:26:06;24.55;;;8.63;;
40339;SDS011;26044;50.864;20.658;2023-03-30T06:28:33;23.58;;;8.98;;
40339;SDS011;26044;50.864;20.658;2023-03-30T06:31:00;23.90;;;9.18;;
40339;SDS011;26044;50.864;20.658;2023-03-30T06:33:32;24.27;;;7.95;;
40339;SDS011;26044;50.864;20.658;2023-03-30T06:35:58;25.95;;;8.07;;
40339;SDS011;26044;50.864;20.658;2023-03-30T06:38:25;26.55;;;7.93;;
40339;SDS011;26044;50.864;20.658;2023-03-30T06:40:52;21.20;;;7.90;;
40339;SDS011;26044;50.864;20.658;2023-03-30T06:43:20;25.92;;;8.25;;
40339;SDS011;26044;50.864;20.658;2023-03-30T06:45:49;29.17;;;11.13;;
40339;SDS011;26044;50.864;20.658;2023-03-30T06:48:18;28.88;;;9.65;;
40339;SDS011;26044;50.864;20.658;2023-03-30T06:50:49;20.65;;;8.00;;
40339;SDS011;26044;50.864;20.658;2023-03-30T06:53:16;25.45;;;8.77;;
40339;SDS011;26044;50.864;20.658;2023-03-30T06:55:44;20.10;;;7.95;;
40339;SDS011;26044;50.864;20.658;2023-03-30T06:58:15;27.90;;;9.15;;
40339;SDS011;26044;50.864;20.658;2023-03-30T07:00:42;27.88;;;9.50;;
40339;SDS011;26044;50.864;20.658;2023-03-30T07:03:09;27.00;;;9.40;;
40339;SDS011;26044;50.864;20.658;2023-03-30T07:05:35;33.13;;;14.48;;
40339;SDS011;26044;50.864;20.658;2023-03-30T07:08:02;28.05;;;10.38;;
40339;SDS011;26044;50.864;20.658;2023-03-30T07:10:31;25.85;;;9.95;;
40339;SDS011;26044;50.864;20.658;2023-03-30T07:12:58;23.38;;;8.88;;
40339;SDS011;26044;50.864;20.658;2023-03-30T07:15:24;24.00;;;7.72;;
40339;SDS011;26044;50.864;20.658;2023-03-30T07:17:51;28.17;;;10.02;;
40339;SDS011;26044;50.864;20.658;2023-03-30T07:20:18;25.73;;;9.63;;
40339;SDS011;26044;50.864;20.658;2023-03-30T07:22:45;28.48;;;11.85;;
40339;SDS011;26044;50.864;20.658;2023-03-30T07:25:12;23.08;;;9.00;;
40339;SDS011;26044;50.864;20.658;2023-03-30T07:27:39;24.35;;;8.70;;
40339;SDS011;26044;50.864;20.658;2023-03-30T07:30:06;21.05;;;7.25;;
40339;SDS011;26044;50.864;20.658;2023-03-30T07:32:47;23.08;;;7.18;;
40339;SDS011;26044;50.864;20.658;2023-03-30T07:35:16;23.35;;;8.75;;
40339;SDS011;26044;50.864;20.658;2023-03-30T07:37:43;23.02;;;7.70;;
40339;SDS011;26044;50.864;20.658;2023-03-30T07:40:10;18.77;;;7.72;;
40339;SDS011;26044;50.864;20.658;2023-03-30T07:42:38;20.33;;;7.13;;
40339;SDS011;26044;50.864;20.658;2023-03-30T07:45:05;22.80;;;7.82;;
40339;SDS011;26044;50.864;20.658;2023-03-30T07:47:32;22.73;;;7.43;;
40339;SDS011;26044;50.864;20.658;2023-03-30T07:49:59;24.35;;;8.95;;
40339;SDS011;26044;50.864;20.658;2023-03-30T07:52:26;25.38;;;8.20;;
40339;SDS011;26044;50.864;20.658;2023-03-30T07:54:53;29.40;;;8.23;;
40339;SDS011;26044;50.864;20.658;2023-03-30T07:57:20;26.38;;;10.43;;
40339;SDS011;26044;50.864;20.658;2023-03-30T07:59:48;20.80;;;8.15;;
40339;SDS011;26044;50.864;20.658;2023-03-30T08:02:14;24.98;;;7.15;;
40339;SDS011;26044;50.864;20.658;2023-03-30T08:04:42;23.75;;;8.30;;
40339;SDS011;26044;50.864;20.658;2023-03-30T08:07:10;17.50;;;5.93;;
40339;SDS011;26044;50.864;20.658;2023-03-30T08:09:37;26.15;;;8.55;;
40339;SDS011;26044;50.864;20.658;2023-03-30T08:12:04;25.90;;;10.00;;
40339;SDS011;26044;50.864;20.658;2023-03-30T08:14:31;24.55;;;7.25;;
40339;SDS011;26044;50.864;20.658;2023-03-30T08:16:58;21.13;;;6.65;;
40339;SDS011;26044;50.864;20.658;2023-03-30T08:19:25;17.00;;;5.72;;
40339;SDS011;26044;50.864;20.658;2023-03-30T08:21:53;18.83;;;6.15;;
40339;SDS011;26044;50.864;20.658;2023-03-30T08:24:22;18.33;;;6.65;;
40339;SDS011;26044;50.864;20.658;2023-03-30T08:26:49;19.63;;;7.13;;
40339;SDS011;26044;50.864;20.658;2023-03-30T08:29:16;27.02;;;8.68;;
40339;SDS011;26044;50.864;20.658;2023-03-30T08:31:44;21.63;;;8.80;;
40339;SDS011;26044;50.864;20.658;2023-03-30T08:34:11;20.92;;;7.15;;
40339;SDS011;26044;50.864;20.658;2023-03-30T08:36:38;22.33;;;6.85;;
40339;SDS011;26044;50.864;20.658;2023-03-30T08:39:05;15.50;;;5.18;;
40339;SDS011;26044;50.864;20.658;2023-03-30T08:44:26;20.35;;;5.90;;
40339;SDS011;26044;50.864;20.658;2023-03-30T08:47:11;15.02;;;5.03;;
40339;SDS011;26044;50.864;20.658;2023-03-30T08:49:43;16.85;;;5.38;;
40339;SDS011;26044;50.864;20.658;2023-03-30T08:52:21;20.52;;;6.00;;
40339;SDS011;26044;50.864;20.658;2023-03-30T08:54:50;18.65;;;7.43;;
40339;SDS011;26044;50.864;20.658;2023-03-30T08:57:21;17.17;;;6.25;;
40339;SDS011;26044;50.864;20.658;2023-03-30T09:00:20;18.48;;;6.05;;
40339;SDS011;26044;50.864;20.658;2023-03-30T09:03:05;18.40;;;6.22;;
40339;SDS011;26044;50.864;20.658;2023-03-30T09:05:44;17.75;;;6.20;;
40339;SDS011;26044;50.864;20.658;2023-03-30T09:08:26;19.15;;;5.72;;
40339;SDS011;26044;50.864;20.658;2023-03-30T09:10:56;18.10;;;5.65;;
40339;SDS011;26044;50.864;20.658;2023-03-30T09:13:26;18.17;;;5.65;;
40339;SDS011;26044;50.864;20.658;2023-03-30T09:18:30;15.98;;;5.43;;
40339;SDS011;26044;50.864;20.658;2023-03-30T09:21:01;17.05;;;5.88;;
40339;SDS011;26044;50.864;20.658;2023-03-30T09:23:31;15.63;;;5.47;;
40339;SDS011;26044;50.864;20.658;2023-03-30T09:31:36;20.02;;;6.15;;
40339;SDS011;26044;50.864;20.658;2023-03-30T09:34:34;17.25;;;5.20;;
40339;SDS011;26044;50.864;20.658;2023-03-30T09:37:11;15.43;;;5.13;;
40339;SDS011;26044;50.864;20.658;2023-03-30T09:39:43;21.83;;;6.72;;
40339;SDS011;26044;50.864;20.658;2023-03-30T09:42:19;17.95;;;6.05;;
40339;SDS011;26044;50.864;20.658;2023-03-30T09:45:18;15.85;;;5.95;;
40339;SDS011;26044;50.864;20.658;2023-03-30T09:47:47;20.10;;;6.05;;
40339;SDS011;26044;50.864;20.658;2023-03-30T09:50:22;19.10;;;6.03;;
40339;SDS011;26044;50.864;20.658;2023-03-30T09:52:58;18.48;;;6.30;;
40339;SDS011;26044;50.864;20.658;2023-03-30T09:55:29;19.05;;;6.90;;
40339;SDS011;26044;50.864;20.658;2023-03-30T09:58:17;20.83;;;5.97;;
40339;SDS011;26044;50.864;20.658;2023-03-30T10:00:46;17.70;;;6.72;;
40339;SDS011;26044;50.864;20.658;2023-03-30T10:03:33;20.20;;;6.55;;
40339;SDS011;26044;50.864;20.658;2023-03-30T10:08:28;18.63;;;6.85;;
40339;SDS011;26044;50.864;20.658;2023-03-30T10:10:55;20.33;;;6.30;;
40339;SDS011;26044;50.864;20.658;2023-03-30T10:13:29;18.20;;;6.15;;
40339;SDS011;26044;50.864;20.658;2023-03-30T10:16:01;20.83;;;7.15;;
40339;SDS011;26044;50.864;20.658;2023-03-30T10:21:04;19.38;;;6.30;;
40339;SDS011;26044;50.864;20.658;2023-03-30T10:23:36;14.90;;;5.95;;
40339;SDS011;26044;50.864;20.658;2023-03-30T10:26:14;16.30;;;6.22;;
40339;SDS011;26044;50.864;20.658;2023-03-30T10:28:53;15.95;;;5.78;;
40339;SDS011;26044;50.864;20.658;2023-03-30T10:31:28;19.30;;;6.47;;
40339;SDS011;26044;50.864;20.658;2023-03-30T10:33:57;19.90;;;6.68;;
40339;SDS011;26044;50.864;20.658;2023-03-30T10:36:29;18.80;;;6.53;;
40339;SDS011;26044;50.864;20.658;2023-03-30T10:39:04;21.02;;;7.03;;
40339;SDS011;26044;50.864;20.658;2023-03-30T10:41:40;18.58;;;6.85;;
40339;SDS011;26044;50.864;20.658;2023-03-30T10:47:04;24.23;;;8.38;;
40339;SDS011;26044;50.864;20.658;2023-03-30T10:55:34;18.35;;;6.75;;
40339;SDS011;26044;50.864;20.658;2023-03-30T11:03:32;17.77;;;5.95;;
40339;SDS011;26044;50.864;20.658;2023-03-30T11:06:12;16.25;;;5.70;;
40339;SDS011;26044;50.864;20.658;2023-03-30T11:08:54;18.33;;;5.38;;
40339;SDS011;26044;50.864;20.658;2023-03-30T11:14:02;18.38;;;5.53;;
40339;SDS011;26044;50.864;20.658;2023-03-30T11:19:21;17.80;;;5.30;;
40339;SDS011;26044;50.864;20.658;2023-03-30T11:22:08;16.63;;;5.22;;
40339;SDS011;26044;50.864;20.658;2023-03-30T11:24:37;15.82;;;5.75;;
40339;SDS011;26044;50.864;20.658;2023-03-30T11:27:12;13.73;;;5.28;;
40339;SDS011;26044;50.864;20.658;2023-03-30T11:29:47;14.95;;;5.00;;
40339;SDS011;26044;50.864;20.658;2023-03-30T11:35:18;18.25;;;5.47;;
40339;SDS011;26044;50.864;20.658;2023-03-30T11:38:16;14.20;;;5.10;;
40339;SDS011;26044;50.864;20.658;2023-03-30T11:40:55;13.80;;;5.38;;
40339;SDS011;26044;50.864;20.658;2023-03-30T11:43:30;12.70;;;5.00;;
40339;SDS011;26044;50.864;20.658;2023-03-30T11:54:18;24.25;;;7.32;;
40339;SDS011;26044;50.864;20.658;2023-03-30T11:57:08;12.98;;;5.10;;
40339;SDS011;26044;50.864;20.658;2023-03-30T11:59:44;14.80;;;5.35;;
40339;SDS011;26044;50.864;20.658;2023-03-30T12:05:48;15.15;;;5.43;;
40339;SDS011;26044;50.864;20.658;2023-03-30T12:11:10;14.00;;;5.15;;
40339;SDS011;26044;50.864;20.658;2023-03-30T12:13:43;16.38;;;4.90;;
40339;SDS011;26044;50.864;20.658;2023-03-30T12:16:25;15.20;;;5.05;;
40339;SDS011;26044;50.864;20.658;2023-03-30T12:19:05;14.95;;;4.53;;
40339;SDS011;26044;50.864;20.658;2023-03-30T12:21:45;14.15;;;5.03;;
40339;SDS011;26044;50.864;20.658;2023-03-30T12:24:25;16.98;;;4.80;;
40339;SDS011;26044;50.864;20.658;2023-03-30T12:27:05;16.02;;;5.25;;
40339;SDS011;26044;50.864;20.658;2023-03-30T12:29:49;14.20;;;5.03;;
40339;SDS011;26044;50.864;20.658;2023-03-30T12:32:21;15.82;;;4.80;;
40339;SDS011;26044;50.864;20.658;2023-03-30T12:34:55;15.35;;;4.30;;
40339;SDS011;26044;50.864;20.658;2023-03-30T12:37:33;13.18;;;4.13;;
40339;SDS011;26044;50.864;20.658;2023-03-30T12:40:03;15.63;;;4.90;;
40339;SDS011;26044;50.864;20.658;2023-03-30T12:42:35;13.60;;;4.32;;
40339;SDS011;26044;50.864;20.658;2023-03-30T12:56:33;14.00;;;4.65;;
40339;SDS011;26044;50.864;20.658;2023-03-30T13:02:11;14.10;;;4.45;;
40339;SDS011;26044;50.864;20.658;2023-03-30T13:04:48;18.75;;;5.25;;
40339;SDS011;26044;50.864;20.658;2023-03-30T13:14:56;15.70;;;5.00;;
40339;SDS011;26044;50.864;20.658;2023-03-30T13:17:36;11.25;;;4.53;;
40339;SDS011;26044;50.864;20.658;2023-03-30T13:20:29;17.25;;;4.55;;
40339;SDS011;26044;50.864;20.658;2023-03-30T13:25:43;12.98;;;4.47;;
40339;SDS011;26044;50.864;20.658;2023-03-30T13:31:14;16.67;;;4.68;;
40339;SDS011;26044;50.864;20.658;2023-03-30T13:33:55;12.15;;;4.38;;
40339;SDS011;26044;50.864;20.658;2023-03-30T13:36:47;11.95;;;4.10;;
40339;SDS011;26044;50.864;20.658;2023-03-30T13:39:33;11.32;;;4.13;;
40339;SDS011;26044;50.864;20.658;2023-03-30T13:45:08;14.60;;;4.25;;
40339;SDS011;26044;50.864;20.658;2023-03-30T13:50:53;15.10;;;4.20;;
40339;SDS011;26044;50.864;20.658;2023-03-30T13:53:25;16.33;;;4.57;;
40339;SDS011;26044;50.864;20.658;2023-03-30T13:55:56;12.45;;;4.60;;
40339;SDS011;26044;50.864;20.658;2023-03-30T13:58:29;16.00;;;4.65;;
40339;SDS011;26044;50.864;20.658;2023-03-30T14:01:04;12.18;;;4.32;;
40339;SDS011;26044;50.864;20.658;2023-03-30T14:03:39;15.65;;;5.22;;
40339;SDS011;26044;50.864;20.658;2023-03-30T14:08:39;12.55;;;4.57;;
40339;SDS011;26044;50.864;20.658;2023-03-30T14:11:12;12.65;;;4.50;;
40339;SDS011;26044;50.864;20.658;2023-03-30T14:13:40;16.35;;;5.13;;
40339;SDS011;26044;50.864;20.658;2023-03-30T14:16:08;15.38;;;4.43;;
40339;SDS011;26044;50.864;20.658;2023-03-30T14:18:42;12.30;;;4.35;;
40339;SDS011;26044;50.864;20.658;2023-03-30T14:21:11;16.20;;;4.82;;
40339;SDS011;26044;50.864;20.658;2023-03-30T14:23:50;18.35;;;4.53;;
40339;SDS011;26044;50.864;20.658;2023-03-30T14:26:22;14.15;;;4.63;;
40339;SDS011;26044;50.864;20.658;2023-03-30T14:28:58;16.00;;;5.55;;
40339;SDS011;26044;50.864;20.658;2023-03-30T14:31:37;16.33;;;4.57;;
40339;SDS011;26044;50.864;20.658;2023-03-30T14:34:28;12.10;;;4.40;;
40339;SDS011;26044;50.864;20.658;2023-03-30T14:36:54;13.85;;;4.30;;
40339;SDS011;26044;50.864;20.658;2023-03-30T14:39:30;16.95;;;4.75;;
40339;SDS011;26044;50.864;20.658;2023-03-30T14:42:08;13.82;;;4.82;;
40339;SDS011;26044;50.864;20.658;2023-03-30T14:44:43;10.50;;;4.28;;
40339;SDS011;26044;50.864;20.658;2023-03-30T14:49:41;12.35;;;3.90;;
40339;SDS011;26044;50.864;20.658;2023-03-30T14:52:15;14.25;;;4.40;;
40339;SDS011;26044;50.864;20.658;2023-03-30T14:54:44;17.95;;;5.07;;
40339;SDS011;26044;50.864;20.658;2023-03-30T14:57:30;14.85;;;4.97;;
40339;SDS011;26044;50.864;20.658;2023-03-30T15:00:05;19.88;;;5.32;;
40339;SDS011;26044;50.864;20.658;2023-03-30T15:02:42;17.85;;;5.45;;
40339;SDS011;26044;50.864;20.658;2023-03-30T15:05:10;15.88;;;5.13;;
40339;SDS011;26044;50.864;20.658;2023-03-30T15:07:37;14.23;;;4.90;;
40339;SDS011;26044;50.864;20.658;2023-03-30T15:10:05;13.50;;;4.82;;
40339;SDS011;26044;50.864;20.658;2023-03-30T15:12:33;14.60;;;5.68;;
40339;SDS011;26044;50.864;20.658;2023-03-30T15:15:04;19.10;;;5.35;;
40339;SDS011;26044;50.864;20.658;2023-03-30T15:20:03;19.30;;;6.30;;
40339;SDS011;26044;50.864;20.658;2023-03-30T15:22:32;16.38;;;4.55;;
40339;SDS011;26044;50.864;20.658;2023-03-30T15:25:04;16.90;;;5.68;;
40339;SDS011;26044;50.864;20.658;2023-03-30T15:27:34;16.85;;;5.22;;
40339;SDS011;26044;50.864;20.658;2023-03-30T15:30:03;17.23;;;5.53;;
40339;SDS011;26044;50.864;20.658;2023-03-30T15:32:38;22.25;;;6.82;;
40339;SDS011;26044;50.864;20.658;2023-03-30T15:37:54;16.48;;;6.13;;
40339;SDS011;26044;50.864;20.658;2023-03-30T15:40:55;17.40;;;6.53;;
40339;SDS011;26044;50.864;20.658;2023-03-30T15:46:24;21.33;;;6.82;;
40339;SDS011;26044;50.864;20.658;2023-03-30T15:48:53;23.05;;;7.05;;
40339;SDS011;26044;50.864;20.658;2023-03-30T15:51:35;22.23;;;7.53;;
40339;SDS011;26044;50.864;20.658;2023-03-30T15:54:06;21.90;;;8.00;;
40339;SDS011;26044;50.864;20.658;2023-03-30T15:59:18;24.50;;;8.05;;
40339;SDS011;26044;50.864;20.658;2023-03-30T16:01:51;23.17;;;8.25;;
40339;SDS011;26044;50.864;20.658;2023-03-30T16:04:23;29.45;;;9.45;;
40339;SDS011;26044;50.864;20.658;2023-03-30T16:06:50;24.58;;;8.43;;
40339;SDS011;26044;50.864;20.658;2023-03-30T16:09:18;23.65;;;7.93;;
40339;SDS011;26044;50.864;20.658;2023-03-30T16:11:45;19.48;;;7.75;;
40339;SDS011;26044;50.864;20.658;2023-03-30T16:14:13;20.63;;;7.35;;
40339;SDS011;26044;50.864;20.658;2023-03-30T16:16:45;21.02;;;7.38;;
40339;SDS011;26044;50.864;20.658;2023-03-30T16:19:13;23.70;;;7.82;;
40339;SDS011;26044;50.864;20.658;2023-03-30T16:21:42;21.83;;;6.88;;
40339;SDS011;26044;50.864;20.658;2023-03-30T16:24:10;24.02;;;8.52;;
40339;SDS011;26044;50.864;20.658;2023-03-30T16:26:39;25.48;;;10.93;;
40339;SDS011;26044;50.864;20.658;2023-03-30T16:29:13;33.63;;;12.23;;
40339;SDS011;26044;50.864;20.658;2023-03-30T16:31:45;32.58;;;13.50;;
40339;SDS011;26044;50.864;20.658;2023-03-30T16:34:16;34.85;;;13.18;;
40339;SDS011;26044;50.864;20.658;2023-03-30T16:36:43;37.03;;;12.70;;
40339;SDS011;26044;50.864;20.658;2023-03-30T16:39:21;31.90;;;10.52;;
40339;SDS011;26044;50.864;20.658;2023-03-30T16:41:50;31.33;;;11.02;;
40339;SDS011;26044;50.864;20.658;2023-03-30T16:44:17;34.80;;;12.38;;
40339;SDS011;26044;50.864;20.658;2023-03-30T16:46:46;31.08;;;12.68;;
40339;SDS011;26044;50.864;20.658;2023-03-30T16:49:15;32.50;;;12.40;;
40339;SDS011;26044;50.864;20.658;2023-03-30T16:51:43;34.33;;;11.67;;
40339;SDS011;26044;50.864;20.658;2023-03-30T16:54:10;32.50;;;12.75;;
40339;SDS011;26044;50.864;20.658;2023-03-30T16:56:52;39.70;;;13.60;;